Terminal Aerodrome Forecast
Issued by NWS Charleston, WV

Current Version | Previous Version | Graphics & Text | Print | Product List | Glossary On
Versions: 1 2 3 4 5 6 7 8 9 10 11 12 13 14 15 16 17 18 19 20 21 22 23 24 25 26 27 28 29
000
FTUS41 KRLX 291124 CCA
TAFHTS
TAF COR
KHTS 291124Z 2912/3012 00000KT 1/2SM FG OVC001
     FM291300 00000KT 2SM BR BKN001
     FM291330 00000KT 6SM BR SCT005
     FM291400 00000KT P6SM FEW050
     FM291800 VRB03KT P6SM SCT035
     FM300300 00000KT P6SM BKN060
     FM300500 00000KT P6SM VCTS BKN060CB
     FM300900 00000KT 3SM BR VCTS BKN045CB
     FM301100 00000KT 5SM BR BKN040=

USA.gov is the U.S. government's official web portal to all federal, state and local government web resources and services.